Terminal Aerodrome Forecast
Issued by NWS

Home | Current Version | Previous Version | Text Only | Print | Product List | Glossary On
Versions: 1 2 3 4 5 6 7 8 9 10 11 12 13 14 15 16 17 18 19 20 21 22 23
458
FTUS46 KSEW 092005 AAB
TAFOLM
TAF AMD
KOLM 092005Z 0920/1018 22008KT P6SM -RA OVC006
      TEMPO 0920/0922 2SM -RA BR OVC004
     FM100200 20010KT 5SM -RA BR OVC012
     FM100900 20014G22KT P6SM -SHRA BKN025 OVC040
     FM101600 21010KT P6SM SCT025 BKN035 OVC050=

USA.gov is the U.S. government's official web portal to all federal, state and local government web resources and services.